Time;durP1;ratioP1;P1;durP2;ratioP2;P2;SDS_P1;SDS_P2;PMS_P1;PMS_P2;Temp;Humidity;BMP_temperature;BMP_pressure;BME280_temperature;BME280_humidity;BME280_pressure;Samples;Min_cycle;Max_cycle;Signal;HPM_P1;HPM_P2
2021/03/28 00:01:47;;;;;;;3.30;2.30;;;20.90;29.40;;;;;;8468769;27;20030;-58
2021/03/28 00:05:50;;;;;;;6.65;3.13;;;20.90;29.30;;;;;;8466356;27;20217;-59
2021/03/28 00:09:55;;;;;;;4.90;2.00;;;20.80;29.30;;;;;;8472777;28;20036;-59
2021/03/28 00:13:57;;;;;;;5.07;2.10;;;20.80;29.30;;;;;;8468970;27;20035;-58
2021/03/28 00:18:06;;;;;;;3.58;2.50;;;20.80;29.30;;;;;;8466568;27;20078;-59
2021/03/28 00:22:20;;;;;;;4.80;2.00;;;20.80;29.30;;;;;;8476354;27;20399;-58
2021/03/28 00:26:41;;;;;;;6.43;2.33;;;20.70;29.20;;;;;;8501895;27;20036;-60
2021/03/28 00:30:42;;;;;;;4.63;2.28;;;20.70;29.20;;;;;;8438832;28;20036;-58
2021/03/28 00:34:46;;;;;;;3.40;1.92;;;20.70;29.20;;;;;;8461260;27;20035;-59
2021/03/28 00:38:54;;;;;;;3.70;1.63;;;20.70;29.20;;;;;;8466072;27;20044;-59
2021/03/28 00:43:10;;;;;;;2.53;1.58;;;20.70;29.20;;;;;;8469500;27;20035;-58
2021/03/28 00:47:19;;;;;;;3.55;1.75;;;20.60;29.20;;;;;;8495368;27;20079;-59
2021/03/28 00:51:24;;;;;;;3.40;2.00;;;20.70;29.20;;;;;;8433061;28;20099;-58
2021/03/28 00:55:28;;;;;;;2.80;1.40;;;20.60;29.10;;;;;;8454478;28;20071;-58
2021/03/28 00:59:56;;;;;;;4.53;2.22;;;20.60;29.20;;;;;;8460103;28;20042;-58
2021/03/28 01:04:34;;;;;;;3.90;1.90;;;20.60;29.20;;;;;;8461450;28;20047;-59
2021/03/28 01:08:44;;;;;;;3.28;1.95;;;20.50;29.10;;;;;;8459709;28;20434;-58
2021/03/28 01:13:29;;;;;;;4.28;2.72;;;20.50;29.10;;;;;;8466375;28;20126;-59
2021/03/28 01:17:48;;;;;;;5.35;2.08;;;20.50;29.10;;;;;;8407110;28;20039;-58
2021/03/28 01:22:08;;;;;;;4.55;1.63;;;20.50;29.10;;;;;;8457216;28;20050;-59
2021/03/28 01:26:13;;;;;;;4.30;1.90;;;20.50;29.10;;;;;;8459507;28;20051;-58
2021/03/28 01:30:21;;;;;;;4.85;2.20;;;20.50;29.10;;;;;;8461318;28;20032;-59
2021/03/28 01:34:31;;;;;;;2.92;1.90;;;20.40;29.10;;;;;;8463653;27;22120;-59
2021/03/28 01:38:57;;;;;;;7.82;1.95;;;20.40;29.10;;;;;;8497381;27;20023;-58
2021/03/28 01:43:09;;;;;;;1.98;1.60;;;20.40;29.10;;;;;;8451385;28;20840;-59
2021/03/28 01:47:36;;;;;;;2.55;1.95;;;20.40;29.10;;;;;;8458335;28;20070;-58
2021/03/28 01:52:06;;;;;;;3.63;1.80;;;20.40;29.10;;;;;;8456379;28;20031;-59
2021/03/28 01:56:57;;;;;;;2.22;1.50;;;20.40;29.10;;;;;;8469187;27;20043;-58
2021/03/28 02:01:11;;;;;;;3.58;1.80;;;20.30;29.00;;;;;;8355245;28;20114;-59
2021/03/28 02:05:25;;;;;;;2.28;1.52;;;20.30;29.50;;;;;;8425786;27;20133;-59
2021/03/28 02:09:29;;;;;;;2.95;1.90;;;20.30;29.00;;;;;;8464616;28;20031;-59
2021/03/28 02:14:10;;;;;;;3.30;2.08;;;20.30;29.00;;;;;;8460055;28;20040;-59
2021/03/28 02:18:28;;;;;;;2.72;1.50;;;20.30;29.00;;;;;;8458124;28;20054;-59
2021/03/28 02:22:48;;;;;;;3.47;1.83;;;20.20;29.00;;;;;;8459432;28;20549;-58
2021/03/28 02:27:18;;;;;;;2.85;1.70;;;20.20;29.00;;;;;;8463775;27;20043;-59
2021/03/28 02:31:33;;;;;;;3.13;1.50;;;20.20;29.00;;;;;;8491478;27;20031;-59
2021/03/28 02:36:15;;;;;;;3.47;2.10;;;20.20;28.90;;;;;;8461326;28;20063;-58
2021/03/28 02:40:41;;;;;;;2.40;1.55;;;20.20;29.00;;;;;;8458531;28;20093;-59
2021/03/28 02:45:03;;;;;;;2.78;1.60;;;20.10;29.00;;;;;;8457422;27;20404;-58
2021/03/28 02:49:32;;;;;;;2.97;1.60;;;20.10;29.00;;;;;;8458709;28;20518;-58
2021/03/28 02:54:02;;;;;;;3.55;1.80;;;20.10;29.00;;;;;;8469748;27;20087;-59
2021/03/28 02:58:11;;;;;;;4.50;1.92;;;20.10;29.00;;;;;;8491232;27;20435;-60
2021/03/28 03:02:39;;;;;;;1.75;1.58;;;20.10;29.00;;;;;;8494813;27;20042;-59
2021/03/28 03:06:46;;;;;;;3.00;1.55;;;20.10;29.00;;;;;;8429290;28;20083;-59
2021/03/28 03:11:04;;;;;;;3.47;1.63;;;20.10;29.00;;;;;;8478885;27;20028;-59
2021/03/28 03:15:41;;;;;;;2.55;1.80;;;20.10;28.90;;;;;;8470930;27;20043;-59
2021/03/28 03:19:59;;;;;;;3.22;1.80;;;20.10;28.90;;;;;;8458215;28;20400;-59
2021/03/28 03:24:41;;;;;;;3.60;1.58;;;20.00;28.90;;;;;;8462525;27;20048;-58
2021/03/28 03:28:50;;;;;;;2.53;1.30;;;20.00;28.90;;;;;;8488771;28;20036;-59
2021/03/28 03:33:35;;;;;;;2.85;1.42;;;20.00;28.90;;;;;;8460567;28;20035;-58
2021/03/28 03:37:51;;;;;;;3.35;1.48;;;20.10;28.90;;;;;;8440033;28;20043;-58
2021/03/28 03:42:26;;;;;;;3.35;1.35;;;20.10;28.80;;;;;;8455484;28;20028;-58
2021/03/28 03:46:54;;;;;;;2.85;1.50;;;20.10;28.80;;;;;;8477817;28;20036;-58
2021/03/28 03:51:03;;;;;;;2.00;1.40;;;20.10;28.80;;;;;;8474629;28;20027;-58
2021/03/28 03:55:29;;;;;;;1.95;1.33;;;20.10;28.80;;;;;;8457155;28;20031;-58
2021/03/28 03:59:40;;;;;;;2.00;1.50;;;20.10;28.80;;;;;;8459754;28;20039;-58
2021/03/28 04:04:00;;;;;;;3.28;2.08;;;20.10;28.80;;;;;;8461730;28;20493;-58
2021/03/28 04:08:27;;;;;;;2.03;1.40;;;20.10;28.80;;;;;;8455240;28;20404;-54
2021/03/28 04:13:02;;;;;;;2.55;1.50;;;20.10;28.70;;;;;;8477704;27;20088;-58
2021/03/28 04:17:26;;;;;;;1.98;1.23;;;20.10;28.70;;;;;;8477233;27;20062;-58
2021/03/28 04:21:45;;;;;;;2.13;1.40;;;20.00;28.70;;;;;;8463788;28;20132;-58
2021/03/28 04:25:51;;;;;;;1.90;1.27;;;20.10;28.80;;;;;;8463309;28;20067;-58
2021/03/28 04:29:52;;;;;;;2.47;1.40;;;20.00;28.70;;;;;;8465556;28;20476;-58
2021/03/28 04:34:07;;;;;;;1.65;1.50;;;20.00;28.80;;;;;;8463112;28;20071;-58
2021/03/28 04:38:34;;;;;;;2.70;1.60;;;19.90;28.70;;;;;;8478305;27;20037;-58
2021/03/28 04:42:40;;;;;;;3.03;1.38;;;19.90;28.80;;;;;;8484423;27;20043;-58
2021/03/28 04:47:11;;;;;;;1.95;1.40;;;19.90;28.80;;;;;;8462497;28;21322;-57
2021/03/28 04:51:36;;;;;;;2.27;1.40;;;19.90;28.80;;;;;;8465403;28;20488;-59
2021/03/28 04:55:57;;;;;;;2.63;1.52;;;19.80;28.70;;;;;;8465010;28;20036;-59
2021/03/28 05:00:22;;;;;;;2.90;1.50;;;19.80;28.80;;;;;;8460698;28;20024;-59
2021/03/28 05:04:43;;;;;;;6.40;1.63;;;19.80;28.80;;;;;;8461790;28;20047;-59
2021/03/28 05:08:54;;;;;;;2.08;1.40;;;19.80;28.80;;;;;;8459845;28;20061;-58
2021/03/28 05:13:03;;;;;;;2.90;1.50;;;19.80;28.80;;;;;;8461842;28;20034;-59
2021/03/28 05:17:26;;;;;;;2.42;1.33;;;19.80;28.80;;;;;;8463959;28;20028;-58
2021/03/28 05:22:04;;;;;;;2.67;1.52;;;19.70;28.80;;;;;;8461230;28;20051;-58
2021/03/28 05:26:10;;;;;;;2.88;1.50;;;19.70;28.80;;;;;;8458518;28;20059;-58
2021/03/28 05:30:46;;;;;;;1.95;1.38;;;19.70;28.80;;;;;;8461199;28;20032;-58
2021/03/28 05:35:10;;;;;;;2.25;1.45;;;19.70;28.80;;;;;;8461039;28;20067;-58
2021/03/28 05:39:56;;;;;;;2.65;1.50;;;19.60;28.70;;;;;;8459652;28;20042;-58
2021/03/28 05:44:22;;;;;;;3.10;1.60;;;19.60;28.70;;;;;;8460591;28;20505;-58
2021/03/28 05:48:47;;;;;;;1.52;1.25;;;19.60;28.70;;;;;;8463678;28;20055;-58
2021/03/28 05:53:18;;;;;;;2.08;1.52;;;19.60;28.70;;;;;;8462419;28;20381;-58
2021/03/28 05:57:31;;;;;;;2.55;1.50;;;19.60;28.70;;;;;;8486966;27;20039;-58
2021/03/28 06:02:09;;;;;;;2.08;1.23;;;19.70;28.70;;;;;;8473917;27;20031;-58
2021/03/28 06:06:57;;;;;;;1.40;1.27;;;19.60;28.70;;;;;;8458608;28;20096;-58
2021/03/28 06:11:19;;;;;;;2.42;1.25;;;19.70;28.70;;;;;;8387116;28;20034;-58
2021/03/28 06:15:38;;;;;;;;;;;19.70;28.70;;;;;;8459200;28;20036;-58
2021/03/28 06:19:48;;;;;;;1.65;1.10;;;19.70;28.70;;;;;;8463910;28;19958;-58
2021/03/28 06:24:03;;;;;;;2.25;1.50;;;19.70;28.60;;;;;;8457324;28;20043;-58
2021/03/28 06:28:38;;;;;;;1.95;1.30;;;19.90;28.50;;;;;;8459071;28;20077;-57
2021/03/28 06:32:57;;;;;;;2.40;1.30;;;20.00;28.20;;;;;;8457303;28;20100;-58
2021/03/28 06:37:16;;;;;;;1.70;1.40;;;20.10;28.10;;;;;;8459163;28;20063;-58
2021/03/28 06:41:51;;;;;;;1.95;1.35;;;20.30;27.90;;;;;;8456523;28;20039;-58
2021/03/28 06:46:05;;;;;;;1.65;1.40;;;20.40;27.70;;;;;;8463267;28;20070;-58
2021/03/28 06:50:31;;;;;;;1.77;1.38;;;20.50;27.60;;;;;;8461307;28;20061;-58
2021/03/28 06:54:56;;;;;;;1.83;1.23;;;20.40;27.60;;;;;;8458583;28;20504;-58
2021/03/28 06:59:35;;;;;;;2.30;1.50;;;20.30;27.70;;;;;;8458222;28;20368;-59
2021/03/28 07:04:10;;;;;;;2.33;1.20;;;20.20;27.80;;;;;;8473642;27;20480;-58
2021/03/28 07:08:47;;;;;;;2.50;1.50;;;20.10;27.90;;;;;;8479073;27;20039;-58
2021/03/28 07:13:15;;;;;;;1.10;1.00;;;20.10;28.00;;;;;;8463798;27;20084;-58
2021/03/28 07:17:47;;;;;;;1.77;1.10;;;20.10;28.10;;;;;;8490176;27;20479;-58
2021/03/28 07:22:24;;;;;;;2.10;1.23;;;20.00;28.10;;;;;;8428928;28;20093;-58
2021/03/28 07:26:49;;;;;;;2.47;1.30;;;19.90;28.20;;;;;;8457843;28;20043;-59
2021/03/28 07:30:57;;;;;;;1.50;1.13;;;19.90;28.20;;;;;;8457957;28;20043;-58
2021/03/28 07:35:19;;;;;;;2.28;1.15;;;19.90;28.20;;;;;;8457573;28;20040;-59
2021/03/28 07:39:38;;;;;;;1.83;1.20;;;19.90;28.10;;;;;;8456180;28;20066;-58
2021/03/28 07:43:38;;;;;;;1.98;1.50;;;19.90;28.10;;;;;;8457360;28;20040;-58
2021/03/28 07:47:38;;;;;;;2.33;1.77;;;19.90;28.10;;;;;;8460198;28;20031;-58
2021/03/28 07:51:53;;;;;;;2.77;1.30;;;19.90;28.10;;;;;;8471566;27;20027;-58
2021/03/28 07:56:38;;;;;;;1.45;1.27;;;19.90;28.10;;;;;;8497390;27;20046;-58
2021/03/28 08:00:48;;;;;;;3.03;1.42;;;19.80;28.10;;;;;;8481517;27;20044;-58
2021/03/28 08:05:06;;;;;;;2.13;1.30;;;19.80;28.20;;;;;;8464530;27;20496;-58
2021/03/28 08:09:33;;;;;;;3.35;1.60;;;19.80;28.30;;;;;;8467016;28;20032;-58
2021/03/28 08:14:15;;;;;;;2.10;1.90;;;19.80;28.30;;;;;;8434685;28;20067;-58
2021/03/28 08:18:35;;;;;;;3.13;1.57;;;19.80;28.30;;;;;;8461602;27;20392;-58
2021/03/28 08:22:59;;;;;;;2.10;1.20;;;19.90;28.40;;;;;;8463243;28;20043;-58
2021/03/28 08:27:33;;;;;;;1.88;1.20;;;19.90;28.40;;;;;;8461584;27;20043;-59
2021/03/28 08:31:52;;;;;;;2.42;1.42;;;19.90;28.40;;;;;;8462959;28;20152;-58
2021/03/28 08:36:21;;;;;;;1.58;1.00;;;20.00;28.40;;;;;;8466223;27;20027;-58
2021/03/28 08:40:59;;;;;;;2.42;1.25;;;20.00;28.40;;;;;;8501145;27;20034;-58
2021/03/28 08:44:59;;;;;;;3.25;1.40;;;20.00;28.40;;;;;;8431216;28;20048;-59
2021/03/28 08:49:02;;;;;;;2.53;1.20;;;20.00;28.40;;;;;;8457213;27;20035;-59
2021/03/28 08:53:11;;;;;;;2.70;1.48;;;20.00;28.40;;;;;;8460258;28;20036;-57
2021/03/28 08:57:27;;;;;;;2.10;1.35;;;20.00;28.40;;;;;;8462290;28;20028;-59
2021/03/28 09:01:36;;;;;;;2.58;1.05;;;20.00;28.40;;;;;;8461397;28;20485;-58
2021/03/28 09:05:48;;;;;;;4.85;1.50;;;20.00;28.40;;;;;;8464535;28;20036;-58
2021/03/28 09:10:04;;;;;;;;;;;20.00;28.40;;;;;;8462254;28;20040;-58
2021/03/28 09:14:44;;;;;;;1.50;1.00;;;20.00;28.40;;;;;;8459706;28;20387;-58
2021/03/28 09:18:48;;;;;;;2.72;1.20;;;19.90;28.40;;;;;;8461618;28;20031;-57
2021/03/28 09:22:57;;;;;;;2.13;1.00;;;19.90;28.40;;;;;;8461322;28;20451;-58
2021/03/28 09:27:27;;;;;;;1.88;1.27;;;19.90;28.50;;;;;;8463667;28;20040;-58
2021/03/28 09:31:51;;;;;;;1.38;1.00;;;20.00;28.50;;;;;;8427337;28;20526;-57
2021/03/28 09:36:13;;;;;;;3.17;1.20;;;19.90;28.40;;;;;;8458932;28;20034;-58
2021/03/28 09:40:30;;;;;;;2.60;1.20;;;20.00;28.50;;;;;;8460822;28;20032;-59
2021/03/28 09:45:10;;;;;;;2.20;1.33;;;20.00;28.50;;;;;;8458681;28;20502;-60
2021/03/28 09:49:32;;;;;;;3.70;1.50;;;20.00;28.40;;;;;;8460685;28;20055;-59
2021/03/28 09:54:09;;;;;;;2.67;1.25;;;20.00;28.50;;;;;;8458496;28;20039;-59
2021/03/28 09:58:45;;;;;;;1.33;0.93;;;20.00;28.40;;;;;;8459395;28;20036;-59
2021/03/28 10:02:50;;;;;;;1.75;1.00;;;20.00;28.50;;;;;;8428510;28;20374;-58
2021/03/28 10:06:58;;;;;;;2.35;1.10;;;20.00;28.40;;;;;;8453229;28;20083;-58
2021/03/28 10:11:15;;;;;;;1.58;1.10;;;20.00;28.50;;;;;;8459693;28;20515;-58
2021/03/28 10:15:26;;;;;;;1.13;0.93;;;20.00;28.50;;;;;;8467842;27;20403;-58
2021/03/28 10:19:39;;;;;;;1.50;1.10;;;20.00;28.50;;;;;;8491568;27;20042;-58
2021/03/28 10:24:07;;;;;;;2.72;1.45;;;20.00;28.50;;;;;;8462168;28;20028;-58
2021/03/28 10:28:30;;;;;;;1.90;1.13;;;20.00;28.50;;;;;;8489495;27;20066;-58
2021/03/28 10:32:52;;;;;;;2.00;1.30;;;20.10;28.50;;;;;;8467769;27;20059;-58
2021/03/28 10:37:05;;;;;;;1.85;0.90;;;20.10;28.50;;;;;;8459425;28;20070;-58
2021/03/28 10:41:25;;;;;;;2.55;1.55;;;20.20;28.40;;;;;;8465335;27;20510;-58
2021/03/28 10:45:36;;;;;;;1.92;1.20;;;20.20;28.40;;;;;;8491739;27;20039;-58
2021/03/28 10:49:55;;;;;;;1.05;1.00;;;20.30;28.40;;;;;;8463329;28;20507;-58
2021/03/28 10:54:33;;;;;;;2.50;1.60;;;20.30;28.40;;;;;;8456965;28;20035;-59
2021/03/28 10:58:45;;;;;;;2.08;1.35;;;20.30;28.40;;;;;;8458593;28;20050;-58
2021/03/28 11:03:22;;;;;;;2.90;1.20;;;20.30;28.30;;;;;;8457072;28;20032;-58
2021/03/28 11:07:42;;;;;;;1.67;0.95;;;20.40;28.40;;;;;;8458384;28;20131;-58
2021/03/28 11:12:33;;;;;;;2.20;1.10;;;20.40;28.30;;;;;;8457307;28;20488;-58
2021/03/28 11:16:49;;;;;;;1.83;1.17;;;20.40;28.70;;;;;;8412873;28;20039;-58
2021/03/28 11:21:12;;;;;;;2.45;1.40;;;20.40;28.30;;;;;;8460758;28;20039;-58
2021/03/28 11:25:24;;;;;;;2.55;0.90;;;20.40;28.30;;;;;;8458099;28;20454;-58
2021/03/28 11:29:51;;;;;;;1.60;1.13;;;20.40;28.30;;;;;;8456253;28;20035;-58
2021/03/28 11:34:31;;;;;;;3.97;1.30;;;20.40;28.30;;;;;;8457752;28;20039;-60
2021/03/28 11:38:44;;;;;;;2.08;1.20;;;20.40;28.30;;;;;;8455672;28;20038;-59
2021/03/28 11:42:50;;;;;;;2.47;1.70;;;20.40;28.30;;;;;;8457546;28;20024;-58
2021/03/28 11:46:58;;;;;;;1.85;1.15;;;20.50;28.30;;;;;;8462224;28;20059;-59
2021/03/28 11:51:33;;;;;;;1.35;1.20;;;20.50;28.30;;;;;;8455735;28;20036;-59
2021/03/28 11:55:48;;;;;;;1.55;1.10;;;20.50;28.30;;;;;;8457731;28;20035;-59
2021/03/28 11:59:54;;;;;;;2.17;1.20;;;20.50;28.30;;;;;;8469764;28;20137;-58
2021/03/28 12:04:24;;;;;;;2.25;1.10;;;20.50;28.20;;;;;;8485628;28;20472;-60
2021/03/28 12:08:47;;;;;;;1.27;1.08;;;20.50;28.20;;;;;;8460288;28;20032;-59
2021/03/28 12:12:50;;;;;;;2.25;1.40;;;20.50;28.30;;;;;;8413601;28;20099;-58
2021/03/28 12:17:09;;;;;;;1.17;0.80;;;20.50;28.20;;;;;;8450935;28;20046;-59
2021/03/28 12:21:32;;;;;;;1.27;0.80;;;20.50;28.20;;;;;;8456422;28;20040;-58
2021/03/28 12:25:35;;;;;;;1.23;1.00;;;20.50;28.20;;;;;;8457556;28;20530;-58
2021/03/28 12:29:38;;;;;;;1.15;1.05;;;20.50;28.20;;;;;;8455508;28;20099;-58
2021/03/28 12:33:58;;;;;;;1.85;1.10;;;20.50;28.20;;;;;;8461288;28;20481;-58
2021/03/28 12:38:19;;;;;;;1.88;1.05;;;20.50;28.20;;;;;;8460553;28;20661;-58
2021/03/28 12:42:23;;;;;;;2.40;1.10;;;20.50;28.20;;;;;;8483367;27;20084;-58
2021/03/28 12:46:26;;;;;;;2.38;1.23;;;20.50;28.20;;;;;;8483794;27;20044;-58
2021/03/28 12:50:32;;;;;;;1.27;0.93;;;20.50;28.20;;;;;;8461680;27;20066;-58
2021/03/28 12:54:36;;;;;;;1.63;0.90;;;20.50;28.20;;;;;;8466921;28;20028;-58
2021/03/28 12:58:43;;;;;;;2.08;0.90;;;20.50;28.20;;;;;;8462627;28;20042;-58
2021/03/28 13:02:46;;;;;;;1.05;0.90;;;20.50;28.20;;;;;;8460509;28;20034;-58
2021/03/28 13:06:49;;;;;;;1.70;1.20;;;20.50;28.30;;;;;;8462302;28;20075;-57
2021/03/28 13:11:00;;;;;;;1.90;1.20;;;20.50;28.30;;;;;;8466560;28;20039;-57
2021/03/28 13:15:23;;;;;;;1.27;1.05;;;20.50;28.20;;;;;;8465102;28;20039;-56
2021/03/28 13:19:34;;;;;;;2.58;1.20;;;20.50;28.30;;;;;;8461943;28;20529;-58
2021/03/28 13:23:54;;;;;;;2.03;1.42;;;20.50;28.20;;;;;;8459979;28;20036;-59
2021/03/28 13:28:19;;;;;;;1.65;1.10;;;20.50;28.30;;;;;;8461673;28;20411;-58
2021/03/28 13:32:26;;;;;;;1.00;0.90;;;20.50;28.30;;;;;;8459746;28;20126;-58
2021/03/28 13:36:37;;;;;;;0.70;0.70;;;20.50;28.30;;;;;;8465871;28;20027;-59
2021/03/28 13:40:47;;;;;;;2.08;1.23;;;20.50;28.30;;;;;;8492392;27;20391;-58
2021/03/28 13:44:57;;;;;;;1.50;1.08;;;20.60;28.30;;;;;;8469805;27;20090;-58
2021/03/28 13:49:04;;;;;;;1.17;0.90;;;20.60;28.30;;;;;;8460490;28;20034;-58
2021/03/28 13:53:17;;;;;;;1.42;1.27;;;20.60;28.30;;;;;;8458908;28;20027;-58
2021/03/28 13:57:24;;;;;;;1.35;0.80;;;20.70;28.30;;;;;;8464776;28;20032;-59
2021/03/28 14:01:26;;;;;;;1.35;0.95;;;20.70;28.30;;;;;;8491894;27;20597;-58
2021/03/28 14:05:32;;;;;;;2.03;0.98;;;20.70;28.30;;;;;;8470267;27;20044;-58
2021/03/28 14:09:37;;;;;;;1.35;1.00;;;20.70;28.30;;;;;;8460576;27;20039;-58
2021/03/28 14:13:39;;;;;;;1.25;0.88;;;20.70;28.20;;;;;;8460147;28;20047;-58
2021/03/28 14:17:39;;;;;;;;;;;20.80;28.20;;;;;;8463180;28;20038;-59
2021/03/28 14:21:41;;;;;;;0.80;0.77;;;20.80;28.20;;;;;;8459826;28;19911;-58
2021/03/28 14:25:54;;;;;;;1.25;1.00;;;20.80;28.20;;;;;;8459615;28;20047;-58
2021/03/28 14:29:58;;;;;;;1.67;0.93;;;20.80;28.20;;;;;;8457716;28;20028;-58
2021/03/28 14:34:18;;;;;;;2.35;1.08;;;20.80;28.20;;;;;;8464058;28;20035;-58
2021/03/28 14:38:39;;;;;;;1.92;1.20;;;20.80;28.20;;;;;;8428363;28;20059;-58
2021/03/28 14:43:02;;;;;;;1.27;1.10;;;20.70;28.10;;;;;;8454299;28;20040;-57
2021/03/28 14:47:34;;;;;;;2.33;1.27;;;20.70;28.20;;;;;;8457245;28;20050;-56
2021/03/28 14:51:53;;;;;;;;;;;20.70;28.20;;;;;;8474908;27;20045;-58
2021/03/28 14:56:16;;;;;;;2.90;1.30;;;20.70;28.20;;;;;;8483719;27;19919;-58
2021/03/28 15:00:29;;;;;;;4.50;1.63;;;20.70;28.20;;;;;;8457056;28;20115;-58
2021/03/28 15:04:58;;;;;;;2.50;1.33;;;20.70;28.20;;;;;;8462692;28;20086;-58
2021/03/28 15:09:03;;;;;;;2.35;1.42;;;20.70;28.20;;;;;;8456549;28;20111;-58
2021/03/28 15:13:04;;;;;;;2.10;1.38;;;20.70;28.20;;;;;;8458484;28;20063;-58
2021/03/28 15:17:17;;;;;;;2.50;1.70;;;20.70;28.20;;;;;;8456784;28;20031;-58
2021/03/28 15:21:24;;;;;;;1.83;1.30;;;20.70;28.20;;;;;;8458331;28;20036;-58
2021/03/28 15:25:27;;;;;;;3.67;1.65;;;20.70;28.20;;;;;;8462378;28;20047;-58
2021/03/28 15:30:02;;;;;;;2.92;1.30;;;20.70;28.20;;;;;;8456483;28;20397;-59
2021/03/28 15:34:45;;;;;;;2.10;1.63;;;20.70;28.20;;;;;;8431202;28;20105;-59
2021/03/28 15:39:11;;;;;;;3.10;1.50;;;20.60;28.20;;;;;;8455621;28;20039;-59
2021/03/28 15:43:40;;;;;;;2.72;2.03;;;20.60;28.20;;;;;;8431045;28;20161;-59
2021/03/28 15:47:47;;;;;;;2.00;1.40;;;20.60;28.20;;;;;;8483069;28;20039;-59
2021/03/28 15:52:10;;;;;;;3.50;1.67;;;20.60;28.30;;;;;;8462328;28;20032;-59
2021/03/28 15:56:32;;;;;;;3.83;1.80;;;20.60;28.30;;;;;;8459380;28;20092;-58
2021/03/28 16:01:11;;;;;;;2.17;1.33;;;20.60;28.30;;;;;;8457488;28;20040;-59
2021/03/28 16:05:40;;;;;;;2.95;1.50;;;20.60;28.30;;;;;;8456512;28;20040;-58
2021/03/28 16:09:53;;;;;;;2.13;1.67;;;20.60;28.30;;;;;;8425790;28;20024;-56
2021/03/28 16:14:12;;;;;;;2.35;1.63;;;20.60;28.30;;;;;;8464359;28;20032;-58
2021/03/28 16:18:46;;;;;;;3.72;1.70;;;20.60;28.30;;;;;;8462343;28;20028;-58
2021/03/28 16:23:03;;;;;;;2.72;1.80;;;20.60;28.30;;;;;;8468211;28;20020;-58
2021/03/28 16:27:15;;;;;;;2.88;1.50;;;20.70;28.30;;;;;;8462147;28;20067;-58
2021/03/28 16:31:44;;;;;;;2.58;2.00;;;20.70;28.30;;;;;;8463579;28;20038;-58
2021/03/28 16:36:03;;;;;;;2.60;1.70;;;20.70;28.30;;;;;;8461234;28;20092;-58
2021/03/28 16:40:14;;;;;;;3.10;1.90;;;20.70;28.30;;;;;;8462847;28;20169;-58
2021/03/28 16:44:51;;;;;;;3.78;2.00;;;20.70;28.30;;;;;;8461931;28;20046;-58
2021/03/28 16:49:07;;;;;;;3.20;2.13;;;20.80;28.30;;;;;;8467485;28;20038;-59
2021/03/28 16:53:10;;;;;;;2.25;1.85;;;20.80;28.20;;;;;;8461054;28;20545;-58
2021/03/28 16:57:14;;;;;;;3.83;2.28;;;20.80;28.20;;;;;;8463498;27;20101;-58
2021/03/28 17:01:30;;;;;;;2.45;1.85;;;20.80;28.20;;;;;;8462820;27;20495;-58
2021/03/28 17:05:31;;;;;;;3.80;2.33;;;20.80;28.20;;;;;;8460579;28;20050;-58
2021/03/28 17:09:36;;;;;;;2.97;1.98;;;20.70;28.10;;;;;;8466650;28;20085;-58
2021/03/28 17:13:48;;;;;;;3.72;2.05;;;20.80;28.10;;;;;;8462396;27;20430;-58
2021/03/28 17:18:09;;;;;;;3.85;2.35;;;20.80;28.10;;;;;;8460224;28;20476;-58
2021/03/28 17:22:37;;;;;;;2.60;2.10;;;20.80;28.20;;;;;;8460799;28;20465;-58
2021/03/28 17:26:46;;;;;;;4.47;2.40;;;20.70;28.10;;;;;;8459972;28;20319;-57
2021/03/28 17:30:57;;;;;;;5.95;3.45;;;20.70;28.10;;;;;;8465224;28;20496;-58
2021/03/28 17:35:19;;;;;;;6.95;4.63;;;20.70;28.20;;;;;;8464380;28;20050;-58
2021/03/28 17:39:28;;;;;;;10.65;5.55;;;20.70;28.20;;;;;;8459694;28;20248;-59
2021/03/28 17:43:45;;;;;;;6.95;4.60;;;20.70;28.20;;;;;;8460789;28;20088;-58
2021/03/28 17:47:53;;;;;;;9.40;5.93;;;20.60;28.20;;;;;;8458845;28;20039;-60
2021/03/28 17:51:54;;;;;;;10.00;6.20;;;20.60;28.30;;;;;;8460637;28;20038;-58
2021/03/28 17:56:05;;;;;;;10.83;6.77;;;20.60;28.30;;;;;;8465114;28;20472;-59
2021/03/28 18:00:30;;;;;;;10.30;7.18;;;20.60;28.30;;;;;;8459297;28;20048;-58
2021/03/28 18:04:35;;;;;;;8.90;6.78;;;20.60;28.40;;;;;;8460666;27;20467;-59
2021/03/28 18:08:41;;;;;;;8.65;6.80;;;20.50;28.30;;;;;;8468510;27;20031;-58
2021/03/28 18:12:42;;;;;;;9.65;6.93;;;20.50;28.40;;;;;;8492252;27;20052;-59
2021/03/28 18:16:43;;;;;;;9.13;6.57;;;20.50;28.40;;;;;;8464674;28;20063;-57
2021/03/28 18:20:44;;;;;;;9.25;6.47;;;20.50;28.40;;;;;;8458258;28;20052;-58
2021/03/28 18:24:50;;;;;;;8.55;5.95;;;20.50;28.40;;;;;;8459852;28;20048;-59
2021/03/28 18:28:50;;;;;;;9.15;6.30;;;20.50;28.50;;;;;;8459591;28;20046;-58
2021/03/28 18:33:11;;;;;;;7.53;5.80;;;20.40;28.50;;;;;;8462140;28;20063;-59
2021/03/28 18:37:22;;;;;;;9.67;6.03;;;20.40;28.50;;;;;;8458962;28;20039;-60
2021/03/28 18:41:27;;;;;;;10.82;6.57;;;20.40;28.50;;;;;;8458077;27;20264;-59
2021/03/28 18:45:41;;;;;;;7.20;5.47;;;20.50;28.50;;;;;;8459384;28;20430;-57
2021/03/28 18:49:45;;;;;;;8.60;6.32;;;20.50;28.50;;;;;;8459409;28;20032;-57
2021/03/28 18:53:49;;;;;;;10.32;5.60;;;20.50;28.50;;;;;;8461714;28;20032;-59
2021/03/28 18:57:52;;;;;;;7.50;5.75;;;20.50;28.50;;;;;;8459529;28;20110;-59
2021/03/28 19:02:23;;;;;;;8.75;5.95;;;20.50;28.50;;;;;;8458912;28;20054;-59
2021/03/28 19:06:29;;;;;;;8.40;5.23;;;20.50;28.50;;;;;;8457499;28;20059;-58
2021/03/28 19:10:34;;;;;;;7.97;5.82;;;20.60;28.50;;;;;;8458454;28;20036;-59
2021/03/28 19:14:39;;;;;;;9.02;5.35;;;20.60;28.50;;;;;;8461327;28;20461;-58
2021/03/28 19:18:39;;;;;;;7.05;5.03;;;20.60;28.50;;;;;;8458372;28;20546;-58
2021/03/28 19:22:44;;;;;;;6.60;4.87;;;20.60;28.50;;;;;;8458916;28;20059;-58
2021/03/28 19:26:46;;;;;;;5.70;4.60;;;20.60;28.50;;;;;;8456424;28;20039;-59
2021/03/28 19:30:46;;;;;;;8.25;5.43;;;20.60;28.50;;;;;;8459542;28;20032;-59
2021/03/28 19:35:08;;;;;;;7.18;5.32;;;20.60;28.50;;;;;;8496469;28;20059;-59
2021/03/28 19:39:17;;;;;;;8.27;5.05;;;20.60;28.50;;;;;;8461456;28;20043;-59
2021/03/28 19:43:22;;;;;;;8.50;5.72;;;20.50;28.50;;;;;;8477150;28;20387;-60
2021/03/28 19:47:40;;;;;;;8.32;5.28;;;20.50;28.60;;;;;;8465957;27;20036;-59
2021/03/28 19:51:53;;;;;;;8.02;5.05;;;20.50;28.60;;;;;;8464878;28;20716;-60
2021/03/28 19:56:00;;;;;;;5.95;4.72;;;20.50;28.50;;;;;;8469090;28;20111;-60
2021/03/28 20:00:14;;;;;;;6.05;4.55;;;20.50;28.60;;;;;;8462999;28;20118;-60
2021/03/28 20:04:26;;;;;;;6.78;5.00;;;20.50;28.60;;;;;;8464467;27;20510;-59
2021/03/28 20:08:36;;;;;;;6.43;4.57;;;20.50;28.60;;;;;;8462416;28;20040;-59
2021/03/28 20:12:36;;;;;;;7.32;4.88;;;20.40;28.50;;;;;;8464197;28;20095;-59
2021/03/28 20:16:44;;;;;;;7.37;4.80;;;20.40;28.60;;;;;;8468672;28;20028;-59
2021/03/28 20:20:46;;;;;;;6.53;4.53;;;20.40;28.60;;;;;;8462229;28;20063;-59
2021/03/28 20:24:48;;;;;;;6.20;4.30;;;20.40;28.60;;;;;;8463928;28;20066;-59
2021/03/28 20:29:29;;;;;;;7.47;5.05;;;20.30;28.50;;;;;;8463797;28;20051;-59
2021/03/28 20:33:50;;;;;;;5.57;4.60;;;20.30;28.60;;;;;;8462009;27;20063;-59
2021/03/28 20:37:51;;;;;;;6.50;4.23;;;20.30;28.60;;;;;;8467755;28;20031;-59
2021/03/28 20:41:54;;;;;;;5.38;4.15;;;20.30;28.60;;;;;;8492444;27;20080;-60
2021/03/28 20:46:05;;;;;;;6.53;4.35;;;20.30;28.60;;;;;;8475208;27;20066;-59
2021/03/28 20:50:09;;;;;;;8.20;4.47;;;20.30;28.60;;;;;;8461145;28;20491;-60
2021/03/28 20:54:10;;;;;;;5.70;4.47;;;20.30;28.70;;;;;;8462564;28;20027;-59
2021/03/28 20:58:11;;;;;;;6.00;4.00;;;20.20;28.60;;;;;;8466088;28;20088;-59
2021/03/28 21:02:22;;;;;;;6.53;4.03;;;20.30;28.60;;;;;;8460862;28;20063;-59
2021/03/28 21:06:23;;;;;;;5.25;4.10;;;20.20;28.60;;;;;;8462792;28;20408;-58
2021/03/28 21:10:25;;;;;;;4.93;3.85;;;20.20;28.50;;;;;;8462331;28;20043;-60
2021/03/28 21:14:30;;;;;;;5.55;4.05;;;20.30;28.60;;;;;;8464733;28;20079;-59
2021/03/28 21:18:31;;;;;;;7.18;3.85;;;20.30;28.60;;;;;;8462140;28;20042;-59
2021/03/28 21:22:32;;;;;;;5.93;3.90;;;20.30;28.60;;;;;;8461777;28;20040;-58
2021/03/28 21:26:39;;;;;;;5.95;4.20;;;20.20;28.50;;;;;;8472326;27;20039;-58
2021/03/28 21:30:40;;;;;;;4.53;3.45;;;20.30;28.50;;;;;;8492258;27;20164;-58
2021/03/28 21:34:46;;;;;;;5.63;4.10;;;20.20;28.50;;;;;;8465933;28;20088;-58
2021/03/28 21:38:58;;;;;;;7.40;3.67;;;20.20;28.50;;;;;;8488514;27;20031;-56
2021/03/28 21:42:59;;;;;;;6.25;3.85;;;20.20;28.50;;;;;;8474856;27;20036;-58
2021/03/28 21:47:01;;;;;;;5.70;3.53;;;20.20;28.50;;;;;;8461065;28;20151;-58
2021/03/28 21:51:02;;;;;;;4.88;3.28;;;20.20;28.50;;;;;;8460816;28;20028;-57
2021/03/28 21:55:09;;;;;;;4.20;2.92;;;20.20;28.50;;;;;;8464430;28;20081;-58
2021/03/28 21:59:15;;;;;;;4.55;3.45;;;20.20;28.50;;;;;;8459001;28;20035;-58
2021/03/28 22:03:30;;;;;;;4.25;3.30;;;20.20;28.60;;;;;;8460246;28;20027;-59
2021/03/28 22:07:33;;;;;;;5.40;3.97;;;20.10;28.50;;;;;;8460174;28;20066;-58
2021/03/28 22:11:36;;;;;;;5.10;3.13;;;20.10;28.50;;;;;;8462800;28;20480;-58
2021/03/28 22:15:39;;;;;;;4.97;3.30;;;20.10;28.60;;;;;;8459968;28;20043;-58